21 minutes ago
Runway Headwind Crosswind Length
8 kt 3 kt 9,934 ft
8 kt 3 kt 6,270 ft
METAR DFFD 202200Z 19009KT 9999 FEW020 28/24 Q1013 NOSIG

METAR definition | Embed

METAR Ouagadougou Airport

Ouagadougou Airport is a large airport in Ouagadougou, Burkina Faso. The airport has 2 runways: 04L/22R (9,934 ft) and 04R/22L

This report was made for Ouagadougou Airport on June 20, 2021 10:00 pm, local time.

Airport observations

The wind is from direction south (190°) with a speed of 9 kt.

Visibility is 6¼ mi or more.

There are few clouds at an altitude of 2,000 ft. No ceiling has been observed.

The temperature and wind chill are 82 °F. The heat index is 32. The dew point is 75 °F, the relative humidity is 79%. The air pressure at sea level is 29.91 inHg (QNH).

Daylight period

Today the sun rises at 5:42 am and sets at 6:33 pm. This applies to Ouagadougou Airport, the universal daylight period may be different. The difference between the local time and UTC is +0 hour. Daylight saving time is currently in progress.

Historical data

Donate

Will you help us to keep Metar-Taf.com running?
Your contribution helps further development of the site and to pay for the expenses.

No more ads

Are you donating $ 5 or more? Then we'll never show you ads again, as a token of our eternal gratitude!
Log in before you donate

Do you want the flying weather of Ouagadougou Airport on your website? Read more   Free!